Terminal Aerodrome Forecast
Issued by NWS

Home | Current Version | Previous Version | Text Only | Print | Product List | Glossary On
Versions: 1 2 3 4 5 6 7 8 9 10 11 12 13 14 15
805
FTUS45 KREV 110540
TAFMMH
TAF
KMMH 110540Z 1106/1206 23020G40KT P6SM -RA SCT015 BKN035 OVC060
      TEMPO 1106/1109 5SM -RA BR BKN025
     FM110900 25010G18KT P6SM SCT035 BKN090
     FM111500 24011KT P6SM FEW180
     FM120300 27006KT P6SM SCT120 BKN180=

USA.gov is the U.S. government's official web portal to all federal, state and local government web resources and services.